Time;durP1;ratioP1;P1;durP2;ratioP2;P2;SDS_P1;SDS_P2;PMS_P1;PMS_P2;Temp;Humidity;BMP_temperature;BMP_pressure;BME280_temperature;BME280_humidity;BME280_pressure;Samples;Min_cycle;Max_cycle;Signal;HPM_P1;HPM_P2
2024/03/26 08:59:19;;;;;;;;;;;;;;;6.26;100.00;97400.25;4915851;29;20067;-86
2024/03/26 09:01:45;;;;;;;;;;;;;;;6.26;100.00;97400.25;4916609;29;19971;-90
2024/03/26 09:04:10;;;;;;;;;;;;;;;6.27;100.00;97401.94;4899974;29;19969;-85
2024/03/26 09:06:35;;;;;;;;;;;;;;;6.23;100.00;97405.69;4916324;29;20018;-88
2024/03/26 09:09:00;;;;;;;;;;;;;;;6.24;100.00;97415.28;4900073;29;19926;-88
2024/03/26 09:11:26;;;;;;;;;;;;;;;6.24;100.00;97415.28;4915073;29;19947;-89
2024/03/26 09:13:51;;;;;;;;;;;;;;;6.29;100.00;97397.41;4914264;29;19924;-85
2024/03/26 09:16:17;;;;;;;;;;;;;;;6.29;100.00;97391.31;4915528;29;20018;-84
2024/03/26 09:18:43;;;;;;;;;;;;;;;6.31;100.00;97392.06;4915713;29;20033;-84
2024/03/26 09:21:09;;;;;;;;;;;;;;;6.27;100.00;97380.91;4916285;29;20005;-86
2024/03/26 09:23:34;;;;;;;;;;;;;;;6.28;100.00;97390.44;4915437;29;19919;-86
2024/03/26 09:26:00;;;;;;;;;;;;;;;6.27;100.00;97391.41;4915526;29;19934;-88
2024/03/26 09:28:25;;;;;;;;;;;;;;;6.24;100.00;97391.59;4916707;29;20302;-87
2024/03/26 09:30:53;;;;;;;;;;;;;;;6.29;100.00;97384.25;4915757;29;19931;-87
2024/03/26 09:33:18;;;;;;;;;;;;;;;6.25;100.00;97382.75;4916085;29;19926;-88
2024/03/26 09:35:44;;;;;;;;;;;;;;;6.24;100.00;97381.09;4916508;29;19926;-85
2024/03/26 09:38:09;;;;;;;;;;;;;;;6.27;100.00;97375.63;4916641;29;20391;-86
2024/03/26 09:40:34;;;;;;;;;;;;;;;6.30;100.00;97374.56;4916352;29;20010;-86
2024/03/26 09:43:03;;;;;;;;;;;;;;;6.30;100.00;97364.94;4914678;29;20006;-90
2024/03/26 09:45:32;;;;;;;;;;;;;;;6.24;100.00;97357.41;4914793;29;19994;-86
2024/03/26 09:47:59;;;;;;;;;;;;;;;6.27;100.00;97357.22;4899304;29;19919;-88
2024/03/26 09:50:25;;;;;;;;;;;;;;;6.30;100.00;97349.16;4914939;29;19927;-88
2024/03/26 09:52:51;;;;;;;;;;;;;;;6.29;100.00;97360.59;4916185;29;19923;-87
2024/03/26 09:55:17;;;;;;;;;;;;;;;6.35;100.00;97347.06;4899004;29;19919;-87
2024/03/26 09:57:44;;;;;;;;;;;;;;;6.31;100.00;97345.53;4914924;29;19930;-88
2024/03/26 10:00:11;;;;;;;;;;;;;;;6.36;100.00;97348.72;4898481;29;20522;-88
2024/03/26 10:02:36;;;;;;;;;;;;;;;6.30;100.00;97343.00;4916184;29;19923;-87
2024/03/26 10:05:02;;;;;;;;;;;;;;;6.30;100.00;97332.50;4916163;29;19924;-89
2024/03/26 10:07:27;;;;;;;;;;;;;;;6.29;100.00;97344.81;4915891;29;20255;-89
2024/03/26 10:09:53;;;;;;;;;;;;;;;6.33;100.00;97343.69;4915885;29;19934;-87
2024/03/26 10:12:18;;;;;;;;;;;;;;;6.29;100.00;97342.19;4913372;29;19979;-87
2024/03/26 10:14:43;;;;;;;;;;;;;;;6.32;100.00;97336.72;4916073;29;20006;-89
2024/03/26 10:17:09;;;;;;;;;;;;;;;6.28;100.00;97335.22;4916030;29;19942;-89
2024/03/26 10:19:34;;;;;;;;;;;;;;;6.26;100.00;97328.41;4915831;29;19978;-91
2024/03/26 10:21:59;;;;;;;;;;;;;;;6.28;100.00;97326.50;4899079;29;19920;-89
2024/03/26 10:24:24;;;;;;;;;;;;;;;6.32;100.00;97315.69;4915686;29;19986;-88
2024/03/26 10:26:50;;;;;;;;;;;;;;;6.33;100.00;97317.38;4914711;29;19926;-89
2024/03/26 10:29:16;;;;;;;;;;;;;;;6.34;100.00;97307.69;4915802;29;19930;-88
2024/03/26 10:31:43;;;;;;;;;;;;;;;6.32;100.00;97310.44;4914610;29;19923;-85
2024/03/26 10:34:09;;;;;;;;;;;;;;;6.33;100.00;97316.53;4916302;29;19923;-88
2024/03/26 10:36:36;;;;;;;;;;;;;;;6.36;100.00;97309.28;4919721;29;20078;-87
2024/03/26 10:39:02;;;;;;;;;;;;;;;6.34;100.00;97312.97;4918835;29;20382;-86
2024/03/26 10:41:34;;;;;;;;;;;;;;;6.32;100.00;97305.16;4917869;29;19923;-87
2024/03/26 10:44:00;;;;;;;;;;;;;;;6.31;100.00;97311.34;4919461;29;19919;-88
2024/03/26 10:46:27;;;;;;;;;;;;;;;6.33;100.00;97304.25;4919696;29;19923;-87
2024/03/26 10:48:52;;;;;;;;;;;;;;;6.37;100.00;97302.25;4918524;29;20359;-85
2024/03/26 10:51:17;;;;;;;;;;;;;;;6.34;100.00;97290.13;4917931;29;19926;-94
2024/03/26 10:53:43;;;;;;;;;;;;;;;6.31;100.00;97290.31;4902649;29;19923;-89
2024/03/26 10:56:10;;;;;;;;;;;;;;;6.32;100.00;97288.56;4901590;29;19923;-91
2024/03/26 10:58:35;;;;;;;;;;;;;;;6.35;100.00;97283.06;4919305;29;19927;-89
2024/03/26 11:01:02;;;;;;;;;;;;;;;6.38;100.00;97285.50;4918309;29;20408;-88
2024/03/26 11:03:28;;;;;;;;;;;;;;;6.35;100.00;97281.28;4901875;29;20261;-91
2024/03/26 11:05:57;;;;;;;;;;;;;;;6.37;100.00;97273.31;4918717;29;19931;-87
2024/03/26 11:08:22;;;;;;;;;;;;;;;6.37;100.00;97268.03;4918605;29;19928;-86
2024/03/26 11:11:01;;;;;;;;;;;;;;;6.43;100.00;97272.03;4917823;29;19930;-89
2024/03/26 11:13:34;;;;;;;;;;;;;;;6.43;100.00;97261.53;4919132;29;20382;-89
2024/03/26 11:15:59;;;;;;;;;;;;;;;6.38;100.00;97255.72;4901992;29;20291;-93
2024/03/26 11:18:28;;;;;;;;;;;;;;;6.39;100.00;97257.44;4901877;29;19966;-88
2024/03/26 11:21:03;;;;;;;;;;;;;;;6.41;100.00;97250.28;4917970;29;20386;-86
2024/03/26 11:23:32;;;;;;;;;;;;;;;6.44;100.00;97252.69;4918581;29;19942;-85
2024/03/26 11:25:58;;;;;;;;;;;;;;;6.46;100.00;97258.69;4900372;29;19927;-83
2024/03/26 11:28:25;;;;;;;;;;;;;;;6.43;100.00;97258.91;4901307;29;19974;-86
2024/03/26 11:30:50;;;;;;;;;;;;;;;6.42;100.00;97244.06;4901586;29;19966;-91
2024/03/26 11:33:30;;;;;;;;;;;;;;;6.45;100.00;97249.13;4918175;29;19958;-86
2024/03/26 11:35:55;;;;;;;;;;;;;;;6.40;100.00;97252.06;4900650;29;19919;-88
2024/03/26 11:38:21;;;;;;;;;;;;;;;6.47;100.00;97244.59;4918102;29;19979;-87
2024/03/26 11:40:49;;;;;;;;;;;;;;;6.50;100.00;97234.72;4917893;29;19990;-84
2024/03/26 11:43:14;;;;;;;;;;;;;;;6.40;100.00;97238.06;4917628;29;19923;-85
2024/03/26 11:45:40;;;;;;;;;;;;;;;6.44;100.00;97239.53;4916641;29;19978;-88
2024/03/26 11:48:06;;;;;;;;;;;;;;;6.39;100.00;97236.38;4901465;29;19926;-90
2024/03/26 11:50:31;;;;;;;;;;;;;;;6.42;100.00;97241.44;4899900;29;19934;-87
2024/03/26 11:53:00;;;;;;;;;;;;;;;6.48;100.00;97243.66;4900783;29;19952;-88
2024/03/26 11:55:25;;;;;;;;;;;;;;;6.47;100.00;97234.91;4901229;29;19923;-85
2024/03/26 11:57:51;;;;;;;;;;;;;;;6.53;100.00;97238.94;4916743;29;19931;-87
2024/03/26 12:00:16;;;;;;;;;;;;;;;6.51;100.00;97240.81;4885782;29;19919;-87
2024/03/26 12:02:41;;;;;;;;;;;;;;;6.53;100.00;97236.31;4917807;29;19923;-86
2024/03/26 12:05:07;;;;;;;;;;;;;;;6.53;100.00;97233.69;4917637;29;20375;-86
2024/03/26 12:07:33;;;;;;;;;;;;;;;6.54;100.00;97220.41;4917585;29;19986;-88
2024/03/26 12:09:59;;;;;;;;;;;;;;;6.53;100.00;97223.16;4901016;29;19923;-87
2024/03/26 12:12:24;;;;;;;;;;;;;;;6.52;100.00;97222.28;4916965;29;20363;-87
2024/03/26 12:14:53;;;;;;;;;;;;;;;6.52;100.00;97210.94;4917107;29;19931;-90
2024/03/26 12:17:18;;;;;;;;;;;;;;;6.58;100.00;97209.69;4917911;29;19955;-87
2024/03/26 12:19:44;;;;;;;;;;;;;;;6.54;100.00;97190.63;4913973;29;19974;-89
2024/03/26 12:22:10;;;;;;;;;;;;;;;6.56;100.00;97191.38;4901094;29;19925;-89
2024/03/26 12:24:36;;;;;;;;;;;;;;;6.66;100.00;97175.81;4918745;29;19919;-87
2024/03/26 12:27:01;;;;;;;;;;;;;;;6.65;100.00;97169.69;4899853;29;19927;-86
2024/03/26 12:29:31;;;;;;;;;;;;;;;6.68;100.00;97171.25;4900686;29;19926;-90
2024/03/26 12:31:56;;;;;;;;;;;;;;;6.69;100.00;97173.78;4900681;29;19919;-86
2024/03/26 12:34:21;;;;;;;;;;;;;;;6.65;100.00;97169.69;4917735;29;19924;-84
2024/03/26 12:36:48;;;;;;;;;;;;;;;6.65;100.00;97159.19;4900573;29;19974;-86
2024/03/26 12:39:13;;;;;;;;;;;;;;;6.74;100.00;97152.44;4899981;29;19935;-85
2024/03/26 12:41:38;;;;;;;;;;;;;;;6.72;100.00;97142.00;4899195;29;19987;-87
2024/03/26 12:44:06;;;;;;;;;;;;;;;6.73;100.00;97130.53;4900346;29;19935;-86
2024/03/26 12:46:32;;;;;;;;;;;;;;;6.72;100.00;97126.22;4916688;29;19919;-87
2024/03/26 12:48:57;;;;;;;;;;;;;;;6.80;100.00;97122.22;4916612;29;19950;-87
2024/03/26 12:51:23;;;;;;;;;;;;;;;6.80;100.00;97124.84;4899856;29;20382;-87
2024/03/26 12:53:48;;;;;;;;;;;;;;;6.79;100.00;97108.19;4917413;29;19923;-88
2024/03/26 12:56:13;;;;;;;;;;;;;;;6.80;100.00;97109.91;4915914;29;19943;-86
2024/03/26 12:58:39;;;;;;;;;;;;;;;6.82;100.00;97100.09;4915779;29;19924;-82
2024/03/26 13:01:04;;;;;;;;;;;;;;;6.82;100.00;97096.63;4917110;29;20452;-85
2024/03/26 13:03:30;;;;;;;;;;;;;;;6.82;100.00;97096.63;4916436;29;19978;-90
2024/03/26 13:05:58;;;;;;;;;;;;;;;6.83;100.00;97088.63;4917021;29;19927;-88
2024/03/26 13:08:24;;;;;;;;;;;;;;;6.87;100.00;97074.28;4916580;29;19923;-85
2024/03/26 13:10:49;;;;;;;;;;;;;;;6.86;100.00;97071.75;4914409;29;19923;-85
2024/03/26 13:13:14;;;;;;;;;;;;;;;6.86;100.00;97077.88;4915265;29;20049;-85
2024/03/26 13:15:40;;;;;;;;;;;;;;;6.90;100.00;97062.69;4916643;29;20002;-84
2024/03/26 13:18:05;;;;;;;;;;;;;;;6.91;100.00;97061.75;4916967;29;20306;-86
2024/03/26 13:20:31;;;;;;;;;;;;;;;6.98;100.00;97054.25;4916110;29;19955;-87
2024/03/26 13:22:56;;;;;;;;;;;;;;;6.97;100.00;97052.56;4916161;29;19931;-87
2024/03/26 13:25:21;;;;;;;;;;;;;;;6.93;100.00;97046.69;4898889;29;19923;-88
2024/03/26 13:27:47;;;;;;;;;;;;;;;6.96;100.00;97050.91;4898086;29;19923;-88
2024/03/26 13:30:12;;;;;;;;;;;;;;;6.96;100.00;97041.22;4916553;29;19973;-87
2024/03/26 13:32:37;;;;;;;;;;;;;;;7.03;100.00;97031.06;4898740;29;19958;-88
2024/03/26 13:35:03;;;;;;;;;;;;;;;7.03;100.00;97029.28;4899347;29;20299;-87
2024/03/26 13:37:34;;;;;;;;;;;;;;;7.01;100.00;97023.28;4916320;29;19923;-88
2024/03/26 13:39:59;;;;;;;;;;;;;;;7.04;100.00;97024.88;4899275;29;20387;-87
2024/03/26 13:42:25;;;;;;;;;;;;;;;7.03;100.00;97021.38;4915293;29;19962;-88
2024/03/26 13:44:52;;;;;;;;;;;;;;;7.04;100.00;97016.97;4915745;29;20435;-91
2024/03/26 13:47:17;;;;;;;;;;;;;;;7.04;100.00;97009.06;4899475;29;20290;-87
2024/03/26 13:49:44;;;;;;;;;;;;;;;7.05;100.00;97013.38;4899291;29;19923;-88
2024/03/26 13:52:15;;;;;;;;;;;;;;;6.99;100.00;97003.28;4916273;29;19927;-89
2024/03/26 13:54:40;;;;;;;;;;;;;;;7.05;100.00;97003.69;4916073;29;20319;-85
2024/03/26 13:57:06;;;;;;;;;;;;;;;7.10;100.00;96998.09;4914928;29;19920;-88
2024/03/26 13:59:31;;;;;;;;;;;;;;;7.15;100.00;96988.06;4899190;29;19933;-88
2024/03/26 14:01:56;;;;;;;;;;;;;;;7.19;100.00;96984.22;4916136;29;19975;-86
2024/03/26 14:04:21;;;;;;;;;;;;;;;7.21;100.00;96973.59;4915090;29;19977;-87
2024/03/26 14:06:47;;;;;;;;;;;;;;;7.22;100.00;96967.38;4915659;29;19975;-87
2024/03/26 14:09:12;;;;;;;;;;;;;;;7.19;100.00;96971.06;4915951;29;19970;-87
2024/03/26 14:11:38;;;;;;;;;;;;;;;7.20;100.00;96967.47;4914816;29;19946;-85
2024/03/26 14:14:04;;;;;;;;;;;;;;;7.16;100.00;96960.75;4915995;29;20007;-86
2024/03/26 14:16:29;;;;;;;;;;;;;;;7.21;100.00;96955.16;4915205;29;19922;-86
2024/03/26 14:18:54;;;;;;;;;;;;;;;7.23;100.00;96945.34;4915878;29;19931;-86
2024/03/26 14:21:19;;;;;;;;;;;;;;;7.26;100.00;96945.13;4915153;29;19923;-85
2024/03/26 14:23:45;;;;;;;;;;;;;;;7.27;100.00;96934.47;4897867;29;20427;-85
2024/03/26 14:26:10;;;;;;;;;;;;;;;7.27;100.00;96917.81;4914571;29;19930;-86
2024/03/26 14:28:35;;;;;;;;;;;;;;;7.31;100.00;96919.28;4898365;29;19927;-86
2024/03/26 14:31:01;;;;;;;;;;;;;;;7.31;100.00;96907.88;4915648;29;19927;-86
2024/03/26 14:33:27;;;;;;;;;;;;;;;7.31;100.00;96895.56;4899165;29;19919;-85
2024/03/26 14:35:54;;;;;;;;;;;;;;;7.35;100.00;96898.81;4914790;29;19919;-85
2024/03/26 14:38:19;;;;;;;;;;;;;;;7.34;100.00;96887.44;4915106;29;19923;-85
2024/03/26 14:40:44;;;;;;;;;;;;;;;7.38;100.00;96873.06;4896888;29;19926;-86
2024/03/26 14:43:10;;;;;;;;;;;;;;;7.42;100.00;96885.06;4897956;29;20336;-87
2024/03/26 14:45:35;;;;;;;;;;;;;;;7.40;100.00;96886.97;4915615;29;19919;-85
2024/03/26 14:48:00;;;;;;;;;;;;;;;7.41;100.00;96872.84;4915756;29;19938;-86
2024/03/26 14:50:25;;;;;;;;;;;;;;;7.45;100.00;96874.28;4898661;29;20315;-86
2024/03/26 14:52:51;;;;;;;;;;;;;;;7.48;100.00;96873.19;4915627;29;19971;-86
2024/03/26 14:55:16;;;;;;;;;;;;;;;7.46;100.00;96878.59;4898695;29;19954;-86
2024/03/26 14:57:41;;;;;;;;;;;;;;;7.46;100.00;96877.75;4914083;29;19974;-84
2024/03/26 15:00:10;;;;;;;;;;;;;;;7.46;100.00;96875.94;4915577;29;20398;-86
2024/03/26 15:02:35;;;;;;;;;;;;;;;7.46;100.00;96875.94;4915551;29;19930;-86
2024/03/26 15:05:04;;;;;;;;;;;;;;;7.48;100.00;96867.09;4914884;29;19919;-86
2024/03/26 15:07:29;;;;;;;;;;;;;;;7.48;100.00;96875.00;4898441;29;20009;-86
2024/03/26 15:09:55;;;;;;;;;;;;;;;7.48;100.00;96870.56;4915480;29;20022;-86
2024/03/26 15:12:20;;;;;;;;;;;;;;;7.48;100.00;96869.75;4897506;29;19923;-87
2024/03/26 15:14:45;;;;;;;;;;;;;;;7.48;100.00;96872.38;4898461;29;19927;-86
2024/03/26 15:17:10;;;;;;;;;;;;;;;7.42;100.00;96860.53;4898562;29;19919;-86
2024/03/26 15:19:36;;;;;;;;;;;;;;;7.48;100.00;96851.28;4898429;29;19930;-86
2024/03/26 15:22:01;;;;;;;;;;;;;;;7.52;100.00;96843.03;4901056;29;20466;-86
2024/03/26 15:24:26;;;;;;;;;;;;;;;7.54;100.00;96845.56;4917125;29;19934;-85
2024/03/26 15:32:20;;;;;;;;;;;;;;;7.57;100.00;96822.44;4918978;29;19926;-86
2024/03/26 15:34:45;;;;;;;;;;;;;;;7.57;100.00;96818.97;4918788;29;19923;-85
2024/03/26 15:37:10;;;;;;;;;;;;;;;7.55;100.00;96816.47;4918166;29;20422;-87
2024/03/26 15:39:36;;;;;;;;;;;;;;;7.60;100.00;96808.19;4918311;29;19930;-87
2024/03/26 15:42:01;;;;;;;;;;;;;;;7.60;100.00;96810.84;4911098;29;20350;-87
2024/03/26 15:44:27;;;;;;;;;;;;;;;7.63;100.00;96805.31;4918127;29;20367;-85
2024/03/26 15:46:52;;;;;;;;;;;;;;;7.67;100.00;96804.09;4917765;29;19937;-89
2024/03/26 15:49:17;;;;;;;;;;;;;;;7.69;100.00;96793.44;4899825;29;20272;-84
2024/03/26 15:51:43;;;;;;;;;;;;;;;7.61;100.00;96799.31;4918019;29;20026;-84
2024/03/26 15:54:10;;;;;;;;;;;;;;;7.61;100.00;96789.63;4917421;29;19927;-84
2024/03/26 15:56:35;;;;;;;;;;;;;;;7.58;100.00;96783.78;4900244;29;20332;-89
2024/03/26 15:59:00;;;;;;;;;;;;;;;7.63;100.00;96786.88;4916858;29;19930;-82
2024/03/26 16:01:26;;;;;;;;;;;;;;;7.61;100.00;96797.53;4917536;29;19923;-84
2024/03/26 16:03:54;;;;;;;;;;;;;;;7.70;100.00;96789.88;4900657;29;19927;-86
2024/03/26 16:06:19;;;;;;;;;;;;;;;7.66;100.00;96786.63;4900822;29;19923;-85
2024/03/26 16:08:45;;;;;;;;;;;;;;;7.67;100.00;96788.28;4917133;29;19916;-88
2024/03/26 16:11:10;;;;;;;;;;;;;;;7.68;100.00;96789.97;4917240;29;19923;-86
2024/03/26 16:13:37;;;;;;;;;;;;;;;7.66;100.00;96794.53;4917973;29;19987;-86
2024/03/26 16:16:04;;;;;;;;;;;;;;;7.70;100.00;96790.69;4917807;29;20264;-86
2024/03/26 16:18:30;;;;;;;;;;;;;;;7.75;100.00;96795.59;4900971;29;20294;-86
2024/03/26 16:20:55;;;;;;;;;;;;;;;7.76;100.00;96803.38;4917734;29;19915;-84
2024/03/26 16:23:20;;;;;;;;;;;;;;;7.78;100.00;96803.28;4916612;29;19923;-87
2024/03/26 16:25:46;;;;;;;;;;;;;;;7.77;100.00;96799.81;4916617;29;19946;-84
2024/03/26 16:28:12;;;;;;;;;;;;;;;7.80;100.00;96789.03;4917340;29;20010;-84
2024/03/26 16:30:38;;;;;;;;;;;;;;;7.79;100.00;96795.25;4917944;29;20062;-86
2024/03/26 16:33:04;;;;;;;;;;;;;;;7.78;100.00;96782.19;4899597;29;19926;-86
2024/03/26 16:35:30;;;;;;;;;;;;;;;7.82;100.00;96781.00;4900934;29;20792;-86
2024/03/26 16:37:55;;;;;;;;;;;;;;;7.81;100.00;96766.94;4900521;29;19919;-86
2024/03/26 16:40:21;;;;;;;;;;;;;;;7.80;100.00;96760.03;4917611;29;19919;-88
2024/03/26 16:42:46;;;;;;;;;;;;;;;7.85;100.00;96749.13;4899502;29;19919;-88
2024/03/26 16:45:11;;;;;;;;;;;;;;;7.89;100.00;96754.97;4917551;29;19923;-86
2024/03/26 16:47:36;;;;;;;;;;;;;;;7.88;100.00;96758.56;4917685;29;20010;-86
2024/03/26 16:50:02;;;;;;;;;;;;;;;7.89;100.00;96757.59;4917491;29;20576;-86
2024/03/26 16:52:27;;;;;;;;;;;;;;;7.94;100.00;96756.25;4917404;29;19919;-86
2024/03/26 16:54:53;;;;;;;;;;;;;;;7.95;100.00;96759.75;4917374;29;19923;-86
2024/03/26 16:57:20;;;;;;;;;;;;;;;7.94;100.00;96752.81;4916383;29;19923;-88
2024/03/26 16:59:53;;;;;;;;;;;;;;;7.95;100.00;96752.69;4900233;29;20018;-88
2024/03/26 17:02:18;;;;;;;;;;;;;;;7.99;100.00;96748.00;4900494;29;20260;-86
2024/03/26 17:04:44;;;;;;;;;;;;;;;8.00;100.00;96742.59;4917110;29;19923;-86
2024/03/26 17:07:10;;;;;;;;;;;;;;;8.03;100.00;96743.31;4917185;29;20361;-86
2024/03/26 17:09:35;;;;;;;;;;;;;;;8.05;100.00;96736.94;4917119;29;19919;-87
2024/03/26 17:12:01;;;;;;;;;;;;;;;8.03;100.00;96736.25;4915986;29;19919;-87
2024/03/26 17:14:26;;;;;;;;;;;;;;;8.05;100.00;96731.69;4917085;29;19923;-87
2024/03/26 17:16:51;;;;;;;;;;;;;;;8.04;100.00;96735.28;4900568;29;19919;-85
2024/03/26 17:19:17;;;;;;;;;;;;;;;8.10;100.00;96737.41;4916918;29;19926;-87
2024/03/26 17:21:42;;;;;;;;;;;;;;;8.08;100.00;96744.63;4916915;29;20006;-87
2024/03/26 17:24:08;;;;;;;;;;;;;;;8.13;100.00;96746.88;4899665;29;19957;-86
2024/03/26 17:26:34;;;;;;;;;;;;;;;8.48;100.00;96754.56;4915814;29;20021;-87
2024/03/26 17:28:59;;;;;;;;;;;;;;;8.12;100.00;96771.56;4916783;29;20002;-87
2024/03/26 17:31:24;;;;;;;;;;;;;;;7.97;100.00;96771.84;4916788;29;20302;-85
2024/03/26 17:33:49;;;;;;;;;;;;;;;7.75;100.00;96775.34;4916709;29;20015;-86
2024/03/26 17:36:15;;;;;;;;;;;;;;;7.64;100.00;96791.16;4899437;29;19919;-86
2024/03/26 17:38:41;;;;;;;;;;;;;;;7.60;100.00;96800.28;4916663;29;19919;-86
2024/03/26 17:41:09;;;;;;;;;;;;;;;7.55;100.00;96805.91;4915264;29;19926;-86
2024/03/26 17:43:34;;;;;;;;;;;;;;;7.54;100.00;96806.03;4913885;29;19970;-87
2024/03/26 17:46:00;;;;;;;;;;;;;;;7.41;100.00;96814.88;4916387;29;20289;-86
2024/03/26 17:48:25;;;;;;;;;;;;;;;7.24;100.00;96813.56;4899507;29;19930;-88
2024/03/26 17:50:57;;;;;;;;;;;;;;;7.15;100.00;96819.53;4899330;29;19923;-84
2024/03/26 17:53:22;;;;;;;;;;;;;;;7.07;100.00;96821.91;4916412;29;19923;-86
2024/03/26 17:55:47;;;;;;;;;;;;;;;7.09;100.00;96826.09;4915878;29;19927;-85
2024/03/26 17:58:13;;;;;;;;;;;;;;;7.07;100.00;96828.00;4898451;29;19927;-85
2024/03/26 18:00:38;;;;;;;;;;;;;;;7.12;100.00;96829.47;4916271;29;19927;-85
2024/03/26 18:03:03;;;;;;;;;;;;;;;7.19;100.00;96825.38;4916179;29;19930;-85
2024/03/26 18:05:33;;;;;;;;;;;;;;;7.19;100.00;96835.94;4915973;29;19927;-85
2024/03/26 18:08:01;;;;;;;;;;;;;;;7.32;100.00;96826.13;4915821;29;20359;-84
2024/03/26 18:10:26;;;;;;;;;;;;;;;7.44;100.00;96830.44;4915523;29;19923;-85
2024/03/26 18:12:51;;;;;;;;;;;;;;;7.56;100.00;96819.91;4914867;29;20006;-86
2024/03/26 18:15:16;;;;;;;;;;;;;;;7.71;100.00;96818.72;4916084;29;19954;-85
2024/03/26 18:17:42;;;;;;;;;;;;;;;7.76;100.00;96821.84;4916083;29;19919;-85
2024/03/26 18:20:09;;;;;;;;;;;;;;;7.85;100.00;96828.19;4915830;29;19923;-85
2024/03/26 18:22:34;;;;;;;;;;;;;;;7.89;100.00;96836.69;4898919;29;19923;-84
2024/03/26 18:25:00;;;;;;;;;;;;;;;7.96;100.00;96829.97;4916014;29;20013;-86
2024/03/26 18:27:26;;;;;;;;;;;;;;;8.00;100.00;96829.59;4914879;29;19920;-86
2024/03/26 18:29:51;;;;;;;;;;;;;;;8.05;100.00;96831.06;4899066;29;19971;-85
2024/03/26 18:32:21;;;;;;;;;;;;;;;8.09;100.00;96833.31;4898748;29;19971;-85
2024/03/26 18:34:46;;;;;;;;;;;;;;;8.15;100.00;96834.63;4897943;29;20054;-86
2024/03/26 18:37:11;;;;;;;;;;;;;;;8.21;100.00;96833.31;4915807;29;20319;-85
2024/03/26 18:39:37;;;;;;;;;;;;;;;8.25;100.00;96837.34;4915770;29;19973;-82
2024/03/26 18:42:02;;;;;;;;;;;;;;;8.28;100.00;96837.09;4914216;29;20434;-85
2024/03/26 18:44:27;;;;;;;;;;;;;;;8.34;100.00;96833.97;4898630;29;20391;-84
2024/03/26 18:46:52;;;;;;;;;;;;;;;8.38;100.00;96835.44;4915684;29;20289;-85
2024/03/26 18:49:18;;;;;;;;;;;;;;;8.42;100.00;96843.91;4898370;29;19930;-84
2024/03/26 18:51:43;;;;;;;;;;;;;;;8.46;100.00;96843.59;4915121;29;19930;-84
2024/03/26 18:54:08;;;;;;;;;;;;;;;8.52;100.00;96845.72;4915725;29;19928;-84
2024/03/26 18:56:33;;;;;;;;;;;;;;;8.56;100.00;96833.13;4917200;29;20303;-85
2024/03/26 18:58:59;;;;;;;;;;;;;;;8.59;100.00;96838.16;4919285;29;19938;-85
2024/03/26 19:01:33;;;;;;;;;;;;;;;8.65;100.00;96845.56;4919337;29;19919;-88
2024/03/26 19:04:02;;;;;;;;;;;;;;;8.69;100.00;96846.16;4918374;29;19919;-84
2024/03/26 19:06:27;;;;;;;;;;;;;;;8.78;100.00;96860.41;4919280;29;20315;-84
2024/03/26 19:08:54;;;;;;;;;;;;;;;8.80;100.00;96861.13;4919331;29;19922;-86
2024/03/26 19:11:19;;;;;;;;;;;;;;;8.85;100.00;96864.22;4917181;29;19918;-84
2024/03/26 19:13:53;;;;;;;;;;;;;;;8.91;100.00;96866.34;4919054;29;19915;-85
2024/03/26 19:16:19;;;;;;;;;;;;;;;8.97;100.00;96872.94;4917508;29;19927;-84
2024/03/26 19:18:44;;;;;;;;;;;;;;;9.00;100.00;96877.94;4918119;29;20331;-84
2024/03/26 19:21:09;;;;;;;;;;;;;;;9.02;100.00;96878.66;4918265;29;19937;-83
2024/03/26 19:23:35;;;;;;;;;;;;;;;9.08;100.00;96892.19;4918063;29;19951;-85
2024/03/26 19:26:02;;;;;;;;;;;;;;;9.15;100.00;96895.16;4916044;29;19959;-85
2024/03/26 19:28:35;;;;;;;;;;;;;;;9.18;100.00;96896.72;4918040;29;19923;-90
2024/03/26 19:31:03;;;;;;;;;;;;;;;9.26;100.00;96900.41;4917204;29;20018;-85
2024/03/26 19:33:28;;;;;;;;;;;;;;;9.31;100.00;96893.91;4917902;29;19919;-86
2024/03/26 19:35:57;;;;;;;;;;;;;;;9.34;100.00;96891.84;4901104;29;19991;-82
2024/03/26 19:38:22;;;;;;;;;;;;;;;9.39;100.00;96892.28;4917217;29;19981;-86
2024/03/26 19:40:52;;;;;;;;;;;;;;;9.46;100.00;96892.59;4917488;29;20340;-85
2024/03/26 19:43:17;;;;;;;;;;;;;;;9.48;100.00;96893.31;4917833;29;19989;-90
2024/03/26 19:45:42;;;;;;;;;;;;;;;9.49;100.00;96894.97;4917682;29;20379;-83
2024/03/26 19:48:08;;;;;;;;;;;;;;;9.56;100.00;96896.16;4917716;29;20009;-84
2024/03/26 19:50:34;;;;;;;;;;;;;;;9.61;100.00;96909.81;4917753;29;19927;-84
2024/03/26 19:52:59;;;;;;;;;;;;;;;9.64;100.00;96900.78;4917470;29;20018;-85
2024/03/26 19:55:25;;;;;;;;;;;;;;;9.71;100.00;96893.19;4917599;29;20002;-83
2024/03/26 19:57:51;;;;;;;;;;;;;;;9.71;100.00;96893.19;4916134;29;19923;-84
2024/03/26 20:00:16;;;;;;;;;;;;;;;9.78;100.00;96891.66;4917351;29;20290;-85
2024/03/26 20:02:41;;;;;;;;;;;;;;;9.83;100.00;96886.84;4917542;29;19915;-86
2024/03/26 20:05:07;;;;;;;;;;;;;;;9.82;100.00;96880.69;4917213;29;19923;-85
2024/03/26 20:07:35;;;;;;;;;;;;;;;9.87;100.00;96877.66;4917343;29;19919;-85
2024/03/26 20:10:00;;;;;;;;;;;;;;;9.91;100.00;96876.44;4917416;29;19919;-84
2024/03/26 20:12:25;;;;;;;;;;;;;;;9.95;100.00;96885.75;4916110;29;19926;-85
2024/03/26 20:14:50;;;;;;;;;;;;;;;9.97;100.00;96883.84;4900252;29;19919;-85
2024/03/26 20:17:16;;;;;;;;;;;;;;;10.04;100.00;96880.69;4917120;29;19969;-84
2024/03/26 20:19:43;;;;;;;;;;;;;;;10.05;100.00;96877.91;4917196;29;19941;-85
2024/03/26 20:22:10;;;;;;;;;;;;;;;10.09;100.00;96881.09;4917276;29;19939;-85
2024/03/26 20:24:38;;;;;;;;;;;;;;;10.14;100.00;96885.00;4916334;29;20026;-85
2024/03/26 20:27:03;;;;;;;;;;;;;;;10.16;100.00;96885.72;4915768;29;19930;-86
2024/03/26 20:29:29;;;;;;;;;;;;;;;10.21;100.00;96879.19;4916827;29;19941;-82
2024/03/26 20:31:54;;;;;;;;;;;;;;;10.23;100.00;96878.09;4917033;29;19919;-82
2024/03/26 20:34:19;;;;;;;;;;;;;;;10.22;100.00;96865.00;4916735;29;20021;-81
2024/03/26 20:36:44;;;;;;;;;;;;;;;10.23;100.00;96870.16;4916911;29;19922;-81
2024/03/26 20:39:09;;;;;;;;;;;;;;;10.30;100.00;96868.63;4916733;29;20496;-82
2024/03/26 20:41:35;;;;;;;;;;;;;;;10.30;100.00;96868.63;4915501;29;19915;-81
2024/03/26 20:44:01;;;;;;;;;;;;;;;10.34;100.00;96870.06;4899397;29;19923;-81
2024/03/26 20:46:26;;;;;;;;;;;;;;;10.36;100.00;96872.59;4916631;29;19930;-82
2024/03/26 20:48:52;;;;;;;;;;;;;;;10.36;100.00;96868.13;4916614;29;19945;-81
2024/03/26 20:51:17;;;;;;;;;;;;;;;10.42;100.00;96863.25;4899619;29;20013;-80
2024/03/26 20:53:42;;;;;;;;;;;;;;;10.47;100.00;96864.53;4916493;29;20279;-81
2024/03/26 20:56:08;;;;;;;;;;;;;;;10.48;100.00;96870.66;4915421;29;19927;-81
2024/03/26 20:58:33;;;;;;;;;;;;;;;10.48;100.00;96863.56;4916055;29;19931;-82
2024/03/26 21:00:59;;;;;;;;;;;;;;;10.53;100.00;96855.22;4916768;29;19923;-84
2024/03/26 21:03:26;;;;;;;;;;;;;;;10.55;100.00;96882.38;4916164;29;19919;-85
2024/03/26 21:05:55;;;;;;;;;;;;;;;10.59;100.00;96902.31;4916341;29;19919;-84
2024/03/26 21:08:20;;;;;;;;;;;;;;;10.61;100.00;96904.81;4915610;29;20034;-85
2024/03/26 21:10:46;;;;;;;;;;;;;;;10.58;100.00;96908.59;4916431;29;20006;-84
2024/03/26 21:13:11;;;;;;;;;;;;;;;10.66;100.00;96914.03;4914967;29;19919;-84
2024/03/26 21:15:36;;;;;;;;;;;;;;;10.68;100.00;96908.59;4916091;29;19919;-86
2024/03/26 21:18:10;;;;;;;;;;;;;;;10.67;100.00;96902.47;4915527;29;20323;-82
2024/03/26 21:20:40;;;;;;;;;;;;;;;10.71;100.00;96901.22;4916008;29;19926;-81
2024/03/26 21:23:05;;;;;;;;;;;;;;;10.76;100.00;96905.28;4915963;29;19919;-80
2024/03/26 21:25:30;;;;;;;;;;;;;;;10.78;100.00;96909.44;4898976;29;19930;-81
2024/03/26 21:27:56;;;;;;;;;;;;;;;10.80;100.00;96906.66;4914450;29;19919;-82
2024/03/26 21:30:21;;;;;;;;;;;;;;;10.80;100.00;96893.41;4916004;29;19919;-82
2024/03/26 21:32:46;;;;;;;;;;;;;;;10.83;100.00;96891.34;4915835;29;20009;-82
2024/03/26 21:35:11;;;;;;;;;;;;;;;10.89;100.00;96889.94;4898930;29;19923;-82
2024/03/26 21:37:37;;;;;;;;;;;;;;;10.93;100.00;96891.38;4898909;29;19945;-83
2024/03/26 21:40:09;;;;;;;;;;;;;;;10.93;100.00;96894.00;4915631;29;19923;-82
2024/03/26 21:42:34;;;;;;;;;;;;;;;10.89;100.00;96889.94;4914700;29;19994;-84